createdAt,value
2019-02-19T00:00:36.886Z,7.70
2019-02-19T00:03:03.315Z,7.72
2019-02-19T00:05:29.158Z,7.77
2019-02-19T00:07:54.972Z,7.79
2019-02-19T00:10:20.821Z,7.77
2019-02-19T00:12:46.661Z,7.73
2019-02-19T00:15:12.811Z,7.72
2019-02-19T00:17:38.638Z,7.72
2019-02-19T00:20:04.463Z,7.74
2019-02-19T00:22:30.304Z,7.73
2019-02-19T00:24:56.130Z,7.72
2019-02-19T00:27:21.988Z,7.73
2019-02-19T00:29:47.913Z,7.74
2019-02-19T00:32:13.769Z,7.77
2019-02-19T00:34:39.590Z,7.80
2019-02-19T00:37:05.436Z,7.80
2019-02-19T00:39:31.263Z,7.84
2019-02-19T00:41:57.117Z,7.85
2019-02-19T00:44:23.035Z,7.90
2019-02-19T00:46:48.894Z,7.92
2019-02-19T00:49:14.729Z,7.95
2019-02-19T00:51:40.572Z,7.95
2019-02-19T00:54:06.498Z,7.96
2019-02-19T00:56:32.325Z,7.98
2019-02-19T00:58:58.280Z,8.01
2019-02-19T01:01:24.101Z,8.01
2019-02-19T01:03:49.939Z,8.03
2019-02-19T01:06:16.253Z,7.98
2019-02-19T01:08:42.092Z,8.00
2019-02-19T01:11:08.017Z,7.97
2019-02-19T01:13:33.867Z,7.95
2019-02-19T01:15:59.787Z,7.94
2019-02-19T01:18:25.654Z,7.88
2019-02-19T01:20:51.484Z,7.85
2019-02-19T01:23:17.328Z,7.77
2019-02-19T01:25:43.159Z,7.69
2019-02-19T01:28:09.020Z,7.68
2019-02-19T01:30:34.844Z,7.59
2019-02-19T01:33:00.690Z,7.55
2019-02-19T01:35:26.512Z,7.55
2019-02-19T01:37:52.365Z,7.45
2019-02-19T01:40:18.205Z,7.40
2019-02-19T01:42:44.022Z,7.49
2019-02-19T01:45:09.869Z,7.43
2019-02-19T01:47:35.681Z,7.39
2019-02-19T01:50:03.325Z,7.28
2019-02-19T01:52:29.161Z,7.17
2019-02-19T01:54:55.023Z,7.20
2019-02-19T01:57:20.841Z,7.29
2019-02-19T01:59:46.696Z,7.30
2019-02-19T02:02:12.506Z,7.35
2019-02-19T02:04:38.342Z,7.42
2019-02-19T02:07:04.618Z,7.63
2019-02-19T02:09:30.691Z,7.76
2019-02-19T02:11:56.508Z,7.94
2019-02-19T02:14:22.351Z,8.16
2019-02-19T02:16:48.171Z,8.45
2019-02-19T02:19:14.024Z,8.61
2019-02-19T02:21:39.883Z,8.70
2019-02-19T02:24:05.696Z,8.82
2019-02-19T02:26:31.560Z,8.71
2019-02-19T02:28:57.698Z,8.71
2019-02-19T02:31:23.542Z,8.63
2019-02-19T02:33:49.345Z,8.65
2019-02-19T02:36:15.302Z,8.62
2019-02-19T02:38:41.131Z,8.53
2019-02-19T02:41:07.003Z,8.46
2019-02-19T02:43:32.824Z,8.57
2019-02-19T02:45:58.670Z,8.65
2019-02-19T02:48:24.500Z,8.71
2019-02-19T02:50:50.324Z,8.74
2019-02-19T02:53:16.143Z,8.86
2019-02-19T02:55:42.119Z,8.89
2019-02-19T02:58:07.938Z,8.91
2019-02-19T03:00:33.853Z,8.94
2019-02-19T03:02:59.702Z,8.95
2019-02-19T03:05:25.536Z,8.94
2019-02-19T03:07:53.280Z,9.01
2019-02-19T03:10:19.102Z,9.00
2019-02-19T03:12:44.945Z,9.04
2019-02-19T03:15:11.358Z,9.01
2019-02-19T03:17:37.198Z,9.05
2019-02-19T03:20:05.155Z,9.05
2019-02-19T03:22:30.986Z,9.07
2019-02-19T03:24:56.812Z,9.09
2019-02-19T03:27:22.665Z,9.05
2019-02-19T03:29:48.475Z,9.04
2019-02-19T03:32:14.329Z,9.05
2019-02-19T03:34:40.142Z,9.11
2019-02-19T03:37:06.052Z,8.97
2019-02-19T03:39:31.850Z,8.97
2019-02-19T03:41:57.669Z,8.94
2019-02-19T03:44:23.505Z,8.94
2019-02-19T03:46:49.317Z,8.97
2019-02-19T03:49:15.167Z,8.98
2019-02-19T03:51:41.002Z,8.97
2019-02-19T03:54:06.940Z,9.03
2019-02-19T03:56:32.768Z,9.05
2019-02-19T03:58:58.733Z,9.00
2019-02-19T04:01:24.606Z,8.99
2019-02-19T04:03:50.639Z,8.98
2019-02-19T04:06:16.533Z,9.00
2019-02-19T04:08:42.388Z,8.93
2019-02-19T04:11:08.222Z,8.83
2019-02-19T04:13:34.160Z,8.81
2019-02-19T04:16:00.008Z,8.83
2019-02-19T04:18:25.822Z,8.74
2019-02-19T04:20:51.726Z,8.77
2019-02-19T04:23:17.537Z,8.78
2019-02-19T04:25:43.380Z,8.73
2019-02-19T04:28:09.195Z,8.71
2019-02-19T04:30:35.044Z,8.67
2019-02-19T04:33:00.862Z,8.65
2019-02-19T04:35:26.695Z,8.61
2019-02-19T04:37:52.515Z,8.60
2019-02-19T04:40:18.362Z,8.57
2019-02-19T04:42:44.285Z,8.62
2019-02-19T04:45:10.222Z,8.56
2019-02-19T04:47:36.048Z,8.49
2019-02-19T04:50:03.873Z,8.43
2019-02-19T04:52:29.752Z,8.50
2019-02-19T04:54:55.590Z,8.51
2019-02-19T04:57:21.726Z,8.48
2019-02-19T04:59:47.572Z,8.54
2019-02-19T05:02:13.416Z,8.50
2019-02-19T05:04:39.264Z,8.41
2019-02-19T05:07:05.099Z,8.39
2019-02-19T05:09:30.923Z,8.38
2019-02-19T05:11:56.771Z,8.44
2019-02-19T05:14:22.594Z,8.30
2019-02-19T05:16:48.454Z,8.33
2019-02-19T05:19:14.317Z,8.43
2019-02-19T05:21:40.172Z,8.43
2019-02-19T05:24:05.996Z,8.45
2019-02-19T05:26:31.846Z,8.45
2019-02-19T05:28:57.661Z,8.49
2019-02-19T05:31:23.509Z,8.54
2019-02-19T05:33:49.358Z,8.57
2019-02-19T05:36:15.202Z,8.47
2019-02-19T05:38:41.032Z,8.44
2019-02-19T05:41:06.864Z,8.54
2019-02-19T05:43:32.684Z,8.54
2019-02-19T05:45:58.507Z,8.52
2019-02-19T05:48:24.362Z,8.44
2019-02-19T05:50:50.179Z,8.44
2019-02-19T05:53:16.048Z,8.45
2019-02-19T05:55:41.871Z,8.35
2019-02-19T05:58:07.714Z,8.37
2019-02-19T06:00:33.637Z,8.35
2019-02-19T06:03:01.377Z,8.24
2019-02-19T06:05:27.201Z,8.23
2019-02-19T06:07:53.038Z,8.28
2019-02-19T06:10:19.657Z,8.26
2019-02-19T06:12:45.501Z,8.26
2019-02-19T06:15:11.620Z,8.18
2019-02-19T06:17:37.518Z,8.23
2019-02-19T06:20:19.580Z,8.11
2019-02-19T06:22:38.229Z,8.17
2019-02-19T06:25:06.577Z,8.09
2019-02-19T06:27:32.406Z,8.17
2019-02-19T06:29:58.283Z,8.26
2019-02-19T06:32:24.142Z,8.28
2019-02-19T06:34:49.978Z,8.23
2019-02-19T06:37:15.940Z,8.19
2019-02-19T06:39:41.781Z,8.20
2019-02-19T06:42:07.625Z,8.22
2019-02-19T06:44:33.475Z,8.15
2019-02-19T06:47:06.640Z,8.14
2019-02-19T06:49:27.084Z,8.18
2019-02-19T06:51:52.924Z,8.18
2019-02-19T06:54:18.766Z,8.09
2019-02-19T06:56:44.597Z,8.11
2019-02-19T06:59:10.604Z,8.15
2019-02-19T07:01:56.472Z,8.14
2019-02-19T07:04:24.266Z,8.14
2019-02-19T07:06:50.323Z,8.21
2019-02-19T07:09:16.308Z,8.25
2019-02-19T07:11:42.130Z,8.27
2019-02-19T07:14:07.991Z,8.28
2019-02-19T07:16:33.820Z,8.33
2019-02-19T07:18:59.786Z,8.41
2019-02-19T07:21:25.623Z,8.42
2019-02-19T07:23:51.475Z,8.46
2019-02-19T07:26:17.293Z,8.45
2019-02-19T07:28:43.142Z,8.58
2019-02-19T07:31:08.984Z,8.60
2019-02-19T07:33:34.817Z,8.77
2019-02-19T07:36:00.653Z,8.82
2019-02-19T07:38:26.516Z,8.74
2019-02-19T07:40:52.417Z,8.69
2019-02-19T07:43:18.397Z,8.71
2019-02-19T07:45:44.238Z,8.72
2019-02-19T07:48:10.084Z,8.71
2019-02-19T07:50:35.946Z,8.57
2019-02-19T07:53:01.753Z,8.67
2019-02-19T07:55:27.620Z,8.74
2019-02-19T07:57:53.439Z,8.82
2019-02-19T08:00:19.287Z,8.75
2019-02-19T08:02:45.096Z,8.83
2019-02-19T08:05:10.973Z,8.96
2019-02-19T08:07:36.934Z,8.96
2019-02-19T08:10:08.751Z,9.01
2019-02-19T08:12:34.617Z,9.15
2019-02-19T08:15:00.486Z,9.17
2019-02-19T08:17:33.022Z,9.25
2019-02-19T08:19:54.211Z,9.42
2019-02-19T08:22:20.082Z,9.50
2019-02-19T08:24:45.902Z,9.47
2019-02-19T08:27:11.756Z,9.52
2019-02-19T08:29:37.594Z,9.38
2019-02-19T08:32:03.561Z,9.37
2019-02-19T08:34:29.386Z,9.33
2019-02-19T08:36:55.410Z,9.28
2019-02-19T08:39:21.221Z,8.98
2019-02-19T08:41:47.169Z,8.99
2019-02-19T08:44:13.010Z,9.05
2019-02-19T08:46:38.959Z,9.21
2019-02-19T08:49:04.889Z,9.34
2019-02-19T08:51:30.840Z,9.43
2019-02-19T08:53:56.816Z,9.48
2019-02-19T08:56:22.643Z,9.72
2019-02-19T08:58:48.592Z,9.73
2019-02-19T09:01:14.416Z,9.76
2019-02-19T09:03:40.256Z,9.91
2019-02-19T09:06:06.161Z,10.02
2019-02-19T09:08:32.025Z,10.27
2019-02-19T09:10:57.844Z,10.58
2019-02-19T09:13:23.689Z,10.72
2019-02-19T09:15:49.521Z,10.74
2019-02-19T09:18:15.377Z,10.61
2019-02-19T09:20:41.229Z,10.63
2019-02-19T09:23:07.591Z,10.54
2019-02-19T09:25:33.423Z,10.94
2019-02-19T09:27:59.432Z,11.20
2019-02-19T09:30:25.253Z,11.03
2019-02-19T09:32:51.114Z,10.54
2019-02-19T09:35:17.039Z,10.36
2019-02-19T09:37:42.851Z,10.12
2019-02-19T09:40:09.315Z,10.18
2019-02-19T09:42:35.146Z,10.18
2019-02-19T09:45:01.108Z,10.17
2019-02-19T09:47:26.945Z,10.23
2019-02-19T09:49:52.915Z,10.34
2019-02-19T09:52:18.723Z,10.46
2019-02-19T09:54:44.588Z,10.69
2019-02-19T09:57:10.410Z,10.61
2019-02-19T09:59:36.263Z,10.32
2019-02-19T10:02:02.193Z,10.75
2019-02-19T10:04:28.069Z,10.88
2019-02-19T10:06:53.904Z,11.07
2019-02-19T10:09:19.746Z,11.66
2019-02-19T10:11:45.692Z,11.76
2019-02-19T10:14:11.560Z,12.22
2019-02-19T10:16:41.522Z,11.72
2019-02-19T10:19:05.095Z,11.30
2019-02-19T10:21:30.959Z,11.26
2019-02-19T10:23:56.795Z,11.41
2019-02-19T10:26:22.658Z,12.52
2019-02-19T10:28:48.484Z,13.43
2019-02-19T10:31:14.447Z,13.46
2019-02-19T10:33:40.377Z,12.59
2019-02-19T10:36:06.321Z,12.89
2019-02-19T10:38:32.140Z,12.75
2019-02-19T10:40:58.069Z,13.74
2019-02-19T10:43:23.895Z,16.45
2019-02-19T10:45:49.736Z,17.50
2019-02-19T10:48:19.014Z,16.42
2019-02-19T10:50:43.355Z,17.95
2019-02-19T10:53:09.165Z,18.68
2019-02-19T10:55:35.031Z,20.63
2019-02-19T10:58:00.965Z,20.64
2019-02-19T11:00:26.962Z,21.07
2019-02-19T11:02:52.790Z,21.01
2019-02-19T11:05:19.410Z,21.35
2019-02-19T11:07:45.297Z,20.18
2019-02-19T11:10:13.483Z,21.34
2019-02-19T11:12:39.815Z,20.87
2019-02-19T11:15:13.402Z,23.13
2019-02-19T11:17:39.292Z,22.08
2019-02-19T11:20:16.972Z,22.57
2019-02-19T11:22:42.941Z,22.77
2019-02-19T11:25:10.681Z,23.84
2019-02-19T11:27:36.540Z,24.94
2019-02-19T11:30:05.567Z,23.26
2019-02-19T11:32:31.420Z,24.78
2019-02-19T11:35:05.561Z,25.70
2019-02-19T11:37:31.741Z,24.32
2019-02-19T11:39:57.565Z,22.15
2019-02-19T11:42:23.446Z,22.96
2019-02-19T11:44:49.300Z,21.88
2019-02-19T11:47:15.140Z,22.35
2019-02-19T11:49:40.986Z,20.59
2019-02-19T11:52:06.935Z,19.40
2019-02-19T11:54:32.799Z,18.05
2019-02-19T11:56:58.862Z,17.27
2019-02-19T11:59:24.737Z,16.12
2019-02-19T12:01:51.086Z,14.99
2019-02-19T12:04:17.620Z,14.62
2019-02-19T12:06:43.447Z,13.98
2019-02-19T12:09:09.294Z,14.10
2019-02-19T12:11:35.122Z,14.61
2019-02-19T12:14:06.233Z,15.22
2019-02-19T12:16:32.109Z,15.70
2019-02-19T12:18:57.974Z,17.29
2019-02-19T12:21:23.860Z,22.45
2019-02-19T12:23:49.734Z,20.17
2019-02-19T12:26:15.566Z,17.39
2019-02-19T12:28:41.400Z,15.51
2019-02-19T12:31:07.361Z,15.53
2019-02-19T12:33:33.193Z,15.72
2019-02-19T12:35:59.045Z,14.81
2019-02-19T12:38:24.922Z,15.89
2019-02-19T12:40:50.867Z,18.98
2019-02-19T12:43:16.726Z,17.30
2019-02-19T12:45:42.584Z,16.76
2019-02-19T12:48:08.512Z,15.75
2019-02-19T12:50:34.374Z,15.24
2019-02-19T12:53:00.204Z,15.23
2019-02-19T12:55:26.045Z,16.89
2019-02-19T12:57:51.881Z,18.68
2019-02-19T13:00:18.237Z,16.01
2019-02-19T13:02:44.290Z,15.02
2019-02-19T13:05:12.381Z,14.32
2019-02-19T13:07:38.227Z,14.63
2019-02-19T13:10:07.487Z,14.30
2019-02-19T13:12:33.451Z,13.75
2019-02-19T13:14:59.286Z,18.70
2019-02-19T13:17:25.149Z,18.01
2019-02-19T13:19:51.005Z,18.36
2019-02-19T13:22:16.844Z,17.54
2019-02-19T13:24:43.133Z,17.79
2019-02-19T13:27:09.191Z,16.30
2019-02-19T13:29:35.048Z,14.83
2019-02-19T13:32:01.229Z,14.54
2019-02-19T13:34:27.058Z,14.56
2019-02-19T13:36:52.910Z,14.83
2019-02-19T13:39:18.732Z,14.96
2019-02-19T13:41:44.619Z,14.69
2019-02-19T13:44:10.492Z,17.04
2019-02-19T13:46:36.976Z,23.27
2019-02-19T13:49:02.941Z,22.52
2019-02-19T13:51:28.768Z,18.70
2019-02-19T13:53:59.582Z,17.25
2019-02-19T13:56:25.432Z,19.77
2019-02-19T13:58:51.272Z,19.44
2019-02-19T14:01:17.103Z,20.11
2019-02-19T14:03:42.944Z,19.15
2019-02-19T14:06:08.792Z,17.93
2019-02-19T14:08:34.627Z,18.39
2019-02-19T14:11:00.463Z,20.93
2019-02-19T14:13:26.438Z,27.34
2019-02-19T14:15:56.883Z,29.78
2019-02-19T14:18:24.643Z,25.08
2019-02-19T14:21:10.565Z,19.50
2019-02-19T14:23:44.161Z,25.17
2019-02-19T14:26:12.001Z,29.95
2019-02-19T14:28:42.801Z,30.64
2019-02-19T14:31:13.531Z,30.28
2019-02-19T14:33:49.046Z,26.94
2019-02-19T14:36:13.779Z,20.80
2019-02-19T14:38:41.577Z,20.79
2019-02-19T14:41:09.452Z,17.37
2019-02-19T14:43:49.495Z,16.73
2019-02-19T14:46:33.805Z,16.92
2019-02-19T14:49:11.022Z,21.60
2019-02-19T14:51:38.758Z,19.73
2019-02-19T14:54:12.424Z,21.79
2019-02-19T14:56:57.188Z,19.39
2019-02-19T14:59:33.920Z,18.70
2019-02-19T15:02:01.642Z,16.95
2019-02-19T15:04:29.518Z,17.04
2019-02-19T15:06:57.282Z,15.24
2019-02-19T15:09:25.168Z,15.60
2019-02-19T15:12:11.123Z,16.45
2019-02-19T15:14:55.292Z,17.93
2019-02-19T15:17:32.262Z,15.73
2019-02-19T15:20:18.119Z,20.31
2019-02-19T15:23:02.684Z,19.68
2019-02-19T15:25:46.934Z,17.88
2019-02-19T15:28:17.428Z,15.34
2019-02-19T15:30:51.185Z,14.12
2019-02-19T15:33:28.213Z,14.07
2019-02-19T15:35:58.735Z,14.16
2019-02-19T15:38:29.470Z,14.32
2019-02-19T15:41:14.202Z,13.95
2019-02-19T15:43:50.869Z,13.79
2019-02-19T15:46:21.575Z,13.83
2019-02-19T15:49:04.600Z,13.74
2019-02-19T15:51:32.401Z,13.26
2019-02-19T15:54:03.211Z,12.71
2019-02-19T15:56:30.998Z,12.54
2019-02-19T15:59:04.513Z,12.40
2019-02-19T16:01:32.253Z,12.20
2019-02-19T16:04:00.131Z,12.28
2019-02-19T16:06:27.855Z,12.13
2019-02-19T16:09:07.586Z,12.21
2019-02-19T16:11:35.385Z,12.11
2019-02-19T16:14:16.716Z,11.85
2019-02-19T16:16:47.213Z,11.83
2019-02-19T16:19:30.238Z,11.64
2019-02-19T16:21:58.011Z,11.41
2019-02-19T16:24:28.898Z,11.26
2019-02-19T16:26:56.793Z,10.99
2019-02-19T16:29:27.381Z,10.84
2019-02-19T16:32:01.047Z,10.78
2019-02-19T16:34:28.862Z,10.76
2019-02-19T16:36:59.463Z,10.62
2019-02-19T16:39:33.175Z,10.68
2019-02-19T16:42:04.419Z,10.65
2019-02-19T16:44:44.290Z,10.61
2019-02-19T16:47:27.077Z,10.58
2019-02-19T16:50:06.883Z,10.51
2019-02-19T16:52:42.731Z,10.42
2019-02-19T16:55:13.652Z,10.36
2019-02-19T16:57:56.688Z,10.25
2019-02-19T17:00:27.166Z,10.28
2019-02-19T17:02:55.050Z,10.27
2019-02-19T17:05:31.927Z,10.27
2019-02-19T17:07:59.691Z,10.25
2019-02-19T17:10:27.487Z,10.21
2019-02-19T17:13:10.512Z,10.12
2019-02-19T17:15:53.251Z,10.04
2019-02-19T17:18:26.861Z,9.85
2019-02-19T17:20:57.852Z,9.73
2019-02-19T17:23:29.854Z,9.53
2019-02-19T17:26:06.683Z,9.50
2019-02-19T17:28:34.417Z,9.37
2019-02-19T17:31:02.208Z,9.27
2019-02-19T17:33:32.720Z,9.23
2019-02-19T17:36:03.459Z,9.20
2019-02-19T17:38:33.961Z,9.22
2019-02-19T17:41:07.835Z,9.12
2019-02-19T17:43:41.777Z,9.09
2019-02-19T17:46:18.812Z,9.10
2019-02-19T17:48:46.551Z,9.07
2019-02-19T17:51:26.512Z,9.03
2019-02-19T17:53:54.487Z,8.97
2019-02-19T17:56:22.491Z,8.90
2019-02-19T17:58:50.365Z,8.82
2019-02-19T18:01:21.156Z,8.73
2019-02-19T18:03:49.079Z,8.71
2019-02-19T18:06:33.731Z,8.64
2019-02-19T18:09:01.535Z,8.59
2019-02-19T18:11:29.291Z,8.61
2019-02-19T18:14:00.145Z,8.58
2019-02-19T18:16:30.905Z,8.63
2019-02-19T18:18:56.866Z,8.65
2019-02-19T18:21:22.879Z,8.58
2019-02-19T18:23:49.079Z,8.56
2019-02-19T18:26:15.004Z,8.51
2019-02-19T18:28:41.056Z,8.40
2019-02-19T18:31:07.042Z,8.34
2019-02-19T18:33:33.173Z,8.27
2019-02-19T18:35:59.011Z,8.26
2019-02-19T18:38:27.495Z,8.17
2019-02-19T18:40:53.349Z,8.16
2019-02-19T18:43:19.369Z,8.16
2019-02-19T18:45:45.335Z,8.13
2019-02-19T18:48:14.230Z,8.12
2019-02-19T18:50:40.181Z,8.08
2019-02-19T18:53:06.194Z,8.07
2019-02-19T18:55:32.149Z,8.05
2019-02-19T18:58:01.025Z,8.05
2019-02-19T19:00:27.100Z,8.04
2019-02-19T19:02:52.925Z,7.96
2019-02-19T19:05:18.777Z,7.92
2019-02-19T19:07:44.793Z,7.91
2019-02-19T19:10:11.639Z,7.84
2019-02-19T19:12:37.691Z,7.80
2019-02-19T19:15:06.910Z,7.77
2019-02-19T19:17:32.767Z,7.77
2019-02-19T19:19:59.001Z,7.76
2019-02-19T19:22:25.020Z,7.88
2019-02-19T19:24:50.953Z,8.01
2019-02-19T19:27:16.854Z,8.03
2019-02-19T19:29:42.715Z,8.04
2019-02-19T19:32:08.582Z,8.04
2019-02-19T19:34:34.656Z,7.97
2019-02-19T19:37:00.523Z,7.96
2019-02-19T19:39:26.511Z,7.90
2019-02-19T19:41:52.559Z,7.85
2019-02-19T19:44:18.670Z,7.82
2019-02-19T19:46:44.662Z,7.74
2019-02-19T19:49:10.610Z,7.71
2019-02-19T19:51:36.496Z,7.72
2019-02-19T19:54:02.572Z,7.71
2019-02-19T19:56:28.442Z,7.64
2019-02-19T19:58:54.505Z,7.54
2019-02-19T20:01:20.655Z,7.44
2019-02-19T20:03:46.608Z,7.39
2019-02-19T20:06:12.557Z,7.30
2019-02-19T20:08:38.424Z,7.23
2019-02-19T20:11:04.457Z,7.15
2019-02-19T20:13:30.318Z,7.10
2019-02-19T20:15:56.248Z,7.04
2019-02-19T20:18:22.120Z,6.99
2019-02-19T20:20:48.038Z,6.89
2019-02-19T20:23:13.923Z,6.82
2019-02-19T20:25:39.768Z,6.75
2019-02-19T20:28:07.167Z,6.72
2019-02-19T20:30:33.120Z,6.71
2019-02-19T20:32:59.124Z,6.71
2019-02-19T20:35:24.985Z,6.81
2019-02-19T20:37:53.926Z,6.83
2019-02-19T20:40:18.929Z,6.79
2019-02-19T20:42:44.794Z,6.70
2019-02-19T20:45:12.134Z,6.61
2019-02-19T20:47:38.079Z,6.51
2019-02-19T20:50:09.281Z,6.48
2019-02-19T20:52:35.281Z,6.43
2019-02-19T20:55:01.280Z,6.37
2019-02-19T20:57:27.479Z,6.43
2019-02-19T20:59:53.486Z,6.55
2019-02-19T21:02:19.443Z,6.70
2019-02-19T21:04:45.388Z,6.86
2019-02-19T21:07:11.228Z,6.98
2019-02-19T21:09:43.456Z,7.03
2019-02-19T21:12:04.889Z,7.08
2019-02-19T21:14:30.758Z,7.08
2019-02-19T21:16:56.722Z,7.07
2019-02-19T21:19:23.053Z,7.10
2019-02-19T21:21:48.916Z,7.13
2019-02-19T21:24:14.777Z,7.18
2019-02-19T21:26:40.793Z,7.19
2019-02-19T21:29:06.626Z,7.12
2019-02-19T21:31:32.569Z,7.03
2019-02-19T21:34:00.166Z,6.89
2019-02-19T21:36:26.011Z,6.73
2019-02-19T21:38:52.511Z,6.58
2019-02-19T21:41:18.951Z,6.43
2019-02-19T21:43:44.955Z,6.29
2019-02-19T21:46:10.886Z,6.15
2019-02-19T21:48:36.867Z,6.05
2019-02-19T21:51:02.855Z,5.92
2019-02-19T21:53:28.733Z,5.84
2019-02-19T21:55:54.734Z,5.75
2019-02-19T21:58:20.704Z,5.65
2019-02-19T22:00:46.608Z,5.58
2019-02-19T22:03:12.536Z,5.51
2019-02-19T22:05:38.454Z,5.46
2019-02-19T22:08:04.293Z,5.41
2019-02-19T22:10:30.177Z,5.37
2019-02-19T22:12:56.036Z,5.33
2019-02-19T22:15:21.927Z,5.31
2019-02-19T22:17:47.926Z,5.28
2019-02-19T22:20:23.478Z,5.23
2019-02-19T22:22:49.610Z,5.17
2019-02-19T22:25:15.601Z,5.11
2019-02-19T22:27:41.475Z,5.05
2019-02-19T22:30:07.845Z,5.02
2019-02-19T22:32:33.717Z,5.02
2019-02-19T22:34:59.579Z,4.97
2019-02-19T22:37:25.435Z,4.90
2019-02-19T22:39:51.258Z,4.87
2019-02-19T22:42:17.224Z,4.81
2019-02-19T22:44:43.151Z,4.78
2019-02-19T22:47:09.030Z,4.74
2019-02-19T22:49:34.860Z,4.71
2019-02-19T22:52:00.747Z,4.69
2019-02-19T22:54:28.476Z,4.67
2019-02-19T22:56:54.479Z,4.69
2019-02-19T22:59:20.520Z,4.69
2019-02-19T23:01:48.518Z,4.65
2019-02-19T23:04:14.383Z,4.61
2019-02-19T23:06:40.222Z,4.60
2019-02-19T23:09:06.174Z,4.58
2019-02-19T23:11:32.469Z,4.50
2019-02-19T23:13:58.325Z,4.46
2019-02-19T23:16:24.148Z,4.43
2019-02-19T23:18:50.024Z,4.42
2019-02-19T23:21:15.874Z,4.39
2019-02-19T23:23:42.020Z,4.34
2019-02-19T23:26:07.990Z,4.36
2019-02-19T23:28:33.836Z,4.38
2019-02-19T23:30:59.680Z,4.43
2019-02-19T23:33:25.510Z,4.43
2019-02-19T23:36:02.476Z,4.44
2019-02-19T23:38:28.329Z,4.49
2019-02-19T23:40:54.191Z,4.59
2019-02-19T23:43:20.019Z,4.69
2019-02-19T23:45:45.943Z,4.77
2019-02-19T23:48:11.892Z,4.81
2019-02-19T23:50:37.740Z,4.75
2019-02-19T23:53:03.664Z,4.67
2019-02-19T23:55:29.743Z,4.58
2019-02-19T23:57:55.677Z,4.54
